sensor_id;sensor_type;location;lat;lon;timestamp;temperature;humidity
76040;SHT30;64736;50.462;4.850;2023-11-25T00:00:48;3.62;96.04
76040;SHT30;64736;50.462;4.850;2023-11-25T00:03:14;3.62;96.01
76040;SHT30;64736;50.462;4.850;2023-11-25T00:05:40;3.63;95.81
76040;SHT30;64736;50.462;4.850;2023-11-25T00:08:06;3.60;95.84
76040;SHT30;64736;50.462;4.850;2023-11-25T00:10:32;3.62;95.91
76040;SHT30;64736;50.462;4.850;2023-11-25T00:12:58;3.60;95.92
76040;SHT30;64736;50.462;4.850;2023-11-25T00:15:24;3.62;95.90
76040;SHT30;64736;50.462;4.850;2023-11-25T00:17:51;3.60;95.89
76040;SHT30;64736;50.462;4.850;2023-11-25T00:20:18;3.54;95.84
76040;SHT30;64736;50.462;4.850;2023-11-25T00:22:45;3.55;95.89
76040;SHT30;64736;50.462;4.850;2023-11-25T00:25:10;3.56;95.91
76040;SHT30;64736;50.462;4.850;2023-11-25T00:27:37;3.59;95.91
76040;SHT30;64736;50.462;4.850;2023-11-25T00:30:03;3.59;95.86
76040;SHT30;64736;50.462;4.850;2023-11-25T00:32:30;3.59;95.41
76040;SHT30;64736;50.462;4.850;2023-11-25T00:34:56;3.59;95.09
76040;SHT30;64736;50.462;4.850;2023-11-25T00:37:22;3.58;95.08
76040;SHT30;64736;50.462;4.850;2023-11-25T00:39:48;3.51;94.49
76040;SHT30;64736;50.462;4.850;2023-11-25T00:42:15;3.52;94.94
76040;SHT30;64736;50.462;4.850;2023-11-25T00:44:40;3.59;94.88
76040;SHT30;64736;50.462;4.850;2023-11-25T00:47:06;3.51;94.74
76040;SHT30;64736;50.462;4.850;2023-11-25T00:49:37;3.55;94.80
76040;SHT30;64736;50.462;4.850;2023-11-25T00:52:06;3.59;94.60
76040;SHT30;64736;50.462;4.850;2023-11-25T00:54:32;3.60;94.51
76040;SHT30;64736;50.462;4.850;2023-11-25T00:56:59;3.59;94.61
76040;SHT30;64736;50.462;4.850;2023-11-25T00:59:27;3.63;94.59
76040;SHT30;64736;50.462;4.850;2023-11-25T01:01:54;3.65;94.43
76040;SHT30;64736;50.462;4.850;2023-11-25T01:04:20;3.75;94.24
76040;SHT30;64736;50.462;4.850;2023-11-25T01:06:46;3.76;94.02
76040;SHT30;64736;50.462;4.850;2023-11-25T01:09:13;3.77;93.87
76040;SHT30;64736;50.462;4.850;2023-11-25T01:11:47;3.77;94.06
76040;SHT30;64736;50.462;4.850;2023-11-25T01:14:13;3.80;93.83
76040;SHT30;64736;50.462;4.850;2023-11-25T01:16:39;3.82;93.65
76040;SHT30;64736;50.462;4.850;2023-11-25T01:19:05;3.80;93.63
76040;SHT30;64736;50.462;4.850;2023-11-25T01:21:31;3.77;93.83
76040;SHT30;64736;50.462;4.850;2023-11-25T01:23:57;3.70;93.90
76040;SHT30;64736;50.462;4.850;2023-11-25T01:26:22;3.67;94.17
76040;SHT30;64736;50.462;4.850;2023-11-25T01:28:48;3.63;94.31
76040;SHT30;64736;50.462;4.850;2023-11-25T01:31:14;3.60;94.32
76040;SHT30;64736;50.462;4.850;2023-11-25T01:33:40;3.56;94.49
76040;SHT30;64736;50.462;4.850;2023-11-25T01:36:07;3.51;94.63
76040;SHT30;64736;50.462;4.850;2023-11-25T01:38:38;3.43;94.70
76040;SHT30;64736;50.462;4.850;2023-11-25T01:41:04;3.40;94.70
76040;SHT30;64736;50.462;4.850;2023-11-25T01:43:30;3.35;94.79
76040;SHT30;64736;50.462;4.850;2023-11-25T01:45:56;3.34;94.88
76040;SHT30;64736;50.462;4.850;2023-11-25T01:48:23;3.27;95.00
76040;SHT30;64736;50.462;4.850;2023-11-25T01:50:49;3.25;95.03
76040;SHT30;64736;50.462;4.850;2023-11-25T01:53:16;3.24;95.02
76040;SHT30;64736;50.462;4.850;2023-11-25T01:55:45;3.22;94.85
76040;SHT30;64736;50.462;4.850;2023-11-25T01:58:14;3.21;95.04
76040;SHT30;64736;50.462;4.850;2023-11-25T02:00:44;3.15;95.08
76040;SHT30;64736;50.462;4.850;2023-11-25T02:03:13;3.15;95.14
76040;SHT30;64736;50.462;4.850;2023-11-25T02:05:39;3.17;95.12
76040;SHT30;64736;50.462;4.850;2023-11-25T02:08:08;3.15;95.17
76040;SHT30;64736;50.462;4.850;2023-11-25T02:10:34;3.14;95.21
76040;SHT30;64736;50.462;4.850;2023-11-25T02:13:03;3.19;95.16
76040;SHT30;64736;50.462;4.850;2023-11-25T02:15:35;3.19;95.06
76040;SHT30;64736;50.462;4.850;2023-11-25T02:18:01;3.19;95.02
76040;SHT30;64736;50.462;4.850;2023-11-25T02:20:35;3.18;94.93
76040;SHT30;64736;50.462;4.850;2023-11-25T02:23:02;3.14;94.96
76040;SHT30;64736;50.462;4.850;2023-11-25T02:25:28;3.12;94.99
76040;SHT30;64736;50.462;4.850;2023-11-25T02:27:54;3.10;95.02
76040;SHT30;64736;50.462;4.850;2023-11-25T02:30:23;3.05;95.14
76040;SHT30;64736;50.462;4.850;2023-11-25T02:32:50;3.04;95.21
76040;SHT30;64736;50.462;4.850;2023-11-25T02:35:17;3.05;95.19
76040;SHT30;64736;50.462;4.850;2023-11-25T02:37:43;3.08;95.20
76040;SHT30;64736;50.462;4.850;2023-11-25T02:40:10;3.12;95.20
76040;SHT30;64736;50.462;4.850;2023-11-25T02:42:45;3.07;95.04
76040;SHT30;64736;50.462;4.850;2023-11-25T02:45:18;3.10;95.11
76040;SHT30;64736;50.462;4.850;2023-11-25T02:47:48;3.10;95.04
76040;SHT30;64736;50.462;4.850;2023-11-25T02:50:14;3.08;94.87
76040;SHT30;64736;50.462;4.850;2023-11-25T02:52:40;3.10;94.89
76040;SHT30;64736;50.462;4.850;2023-11-25T02:55:07;3.11;94.91
76040;SHT30;64736;50.462;4.850;2023-11-25T02:57:41;3.10;94.92
76040;SHT30;64736;50.462;4.850;2023-11-25T03:00:10;3.08;94.91
76040;SHT30;64736;50.462;4.850;2023-11-25T03:02:42;3.10;94.84
76040;SHT30;64736;50.462;4.850;2023-11-25T03:05:12;3.08;94.91
76040;SHT30;64736;50.462;4.850;2023-11-25T03:07:39;3.08;94.91
76040;SHT30;64736;50.462;4.850;2023-11-25T03:10:05;3.08;94.92
76040;SHT30;64736;50.462;4.850;2023-11-25T03:12:32;3.14;94.95
76040;SHT30;64736;50.462;4.850;2023-11-25T03:14:57;3.24;94.82
76040;SHT30;64736;50.462;4.850;2023-11-25T03:17:23;3.28;94.56
76040;SHT30;64736;50.462;4.850;2023-11-25T03:19:49;3.36;94.54
76040;SHT30;64736;50.462;4.850;2023-11-25T03:22:15;3.38;94.50
76040;SHT30;64736;50.462;4.850;2023-11-25T03:24:40;3.43;94.50
76040;SHT30;64736;50.462;4.850;2023-11-25T03:27:07;3.46;94.41
76040;SHT30;64736;50.462;4.850;2023-11-25T03:29:33;3.51;94.35
76040;SHT30;64736;50.462;4.850;2023-11-25T03:32:00;3.45;94.27
76040;SHT30;64736;50.462;4.850;2023-11-25T03:34:25;3.42;94.20
76040;SHT30;64736;50.462;4.850;2023-11-25T03:36:51;3.38;94.17
76040;SHT30;64736;50.462;4.850;2023-11-25T03:39:20;3.32;94.43
76040;SHT30;64736;50.462;4.850;2023-11-25T03:41:45;3.32;94.55
76040;SHT30;64736;50.462;4.850;2023-11-25T03:44:11;3.29;94.65
76040;SHT30;64736;50.462;4.850;2023-11-25T03:46:40;3.32;94.59
76040;SHT30;64736;50.462;4.850;2023-11-25T03:49:06;3.31;94.53
76040;SHT30;64736;50.462;4.850;2023-11-25T03:51:32;3.28;94.50
76040;SHT30;64736;50.462;4.850;2023-11-25T03:53:58;3.25;94.62
76040;SHT30;64736;50.462;4.850;2023-11-25T03:56:24;3.21;94.64
76040;SHT30;64736;50.462;4.850;2023-11-25T03:58:49;3.21;94.65
76040;SHT30;64736;50.462;4.850;2023-11-25T04:01:15;3.18;94.64
76040;SHT30;64736;50.462;4.850;2023-11-25T04:03:41;3.14;94.65
76040;SHT30;64736;50.462;4.850;2023-11-25T04:06:07;3.15;94.77
76040;SHT30;64736;50.462;4.850;2023-11-25T04:08:33;3.10;94.83
76040;SHT30;64736;50.462;4.850;2023-11-25T04:10:59;3.08;94.78
76040;SHT30;64736;50.462;4.850;2023-11-25T04:13:25;3.08;94.78
76040;SHT30;64736;50.462;4.850;2023-11-25T04:15:51;3.07;94.89
76040;SHT30;64736;50.462;4.850;2023-11-25T04:18:17;3.07;94.95
76040;SHT30;64736;50.462;4.850;2023-11-25T04:20:42;3.05;94.97
76040;SHT30;64736;50.462;4.850;2023-11-25T04:23:09;3.08;94.93
76040;SHT30;64736;50.462;4.850;2023-11-25T04:25:36;3.05;94.95
76040;SHT30;64736;50.462;4.850;2023-11-25T04:28:02;3.12;94.91
76040;SHT30;64736;50.462;4.850;2023-11-25T04:30:34;3.15;94.77
76040;SHT30;64736;50.462;4.850;2023-11-25T04:33:00;3.14;94.80
76040;SHT30;64736;50.462;4.850;2023-11-25T04:35:26;3.14;94.88
76040;SHT30;64736;50.462;4.850;2023-11-25T04:37:52;3.15;94.90
76040;SHT30;64736;50.462;4.850;2023-11-25T04:40:17;3.11;94.91
76040;SHT30;64736;50.462;4.850;2023-11-25T04:42:44;3.08;94.99
76040;SHT30;64736;50.462;4.850;2023-11-25T04:45:11;3.03;95.08
76040;SHT30;64736;50.462;4.850;2023-11-25T04:47:44;3.01;95.12
76040;SHT30;64736;50.462;4.850;2023-11-25T04:50:13;3.07;95.11
76040;SHT30;64736;50.462;4.850;2023-11-25T04:52:40;3.03;95.11
76040;SHT30;64736;50.462;4.850;2023-11-25T04:55:10;3.04;95.21
76040;SHT30;64736;50.462;4.850;2023-11-25T04:57:36;3.03;95.34
76040;SHT30;64736;50.462;4.850;2023-11-25T05:00:06;3.10;95.35
76040;SHT30;64736;50.462;4.850;2023-11-25T05:02:36;3.05;95.26
76040;SHT30;64736;50.462;4.850;2023-11-25T05:05:05;3.01;95.18
76040;SHT30;64736;50.462;4.850;2023-11-25T05:07:31;3.01;95.22
76040;SHT30;64736;50.462;4.850;2023-11-25T05:09:58;2.97;95.26
76040;SHT30;64736;50.462;4.850;2023-11-25T05:12:24;2.98;95.34
76040;SHT30;64736;50.462;4.850;2023-11-25T05:14:50;2.96;95.37
76040;SHT30;64736;50.462;4.850;2023-11-25T05:17:17;2.94;95.42
76040;SHT30;64736;50.462;4.850;2023-11-25T05:19:43;2.89;95.45
76040;SHT30;64736;50.462;4.850;2023-11-25T05:22:09;2.87;95.49
76040;SHT30;64736;50.462;4.850;2023-11-25T05:24:35;2.84;95.56
76040;SHT30;64736;50.462;4.850;2023-11-25T05:27:01;2.83;95.56
76040;SHT30;64736;50.462;4.850;2023-11-25T05:29:27;2.81;95.66
76040;SHT30;64736;50.462;4.850;2023-11-25T05:31:53;2.80;95.68
76040;SHT30;64736;50.462;4.850;2023-11-25T05:34:19;2.83;95.78
76040;SHT30;64736;50.462;4.850;2023-11-25T05:36:48;2.84;95.81
76040;SHT30;64736;50.462;4.850;2023-11-25T05:39:14;2.90;95.87
76040;SHT30;64736;50.462;4.850;2023-11-25T05:41:42;2.83;95.85
76040;SHT30;64736;50.462;4.850;2023-11-25T05:44:08;2.86;95.91
76040;SHT30;64736;50.462;4.850;2023-11-25T05:46:36;2.83;95.92
76040;SHT30;64736;50.462;4.850;2023-11-25T05:49:02;2.84;95.95
76040;SHT30;64736;50.462;4.850;2023-11-25T05:51:37;2.89;95.94
76040;SHT30;64736;50.462;4.850;2023-11-25T05:54:09;2.90;95.96
76040;SHT30;64736;50.462;4.850;2023-11-25T05:56:42;2.89;95.95
76040;SHT30;64736;50.462;4.850;2023-11-25T05:59:08;2.93;95.93
76040;SHT30;64736;50.462;4.850;2023-11-25T06:01:37;2.97;95.95
76040;SHT30;64736;50.462;4.850;2023-11-25T06:04:03;2.98;95.96
76040;SHT30;64736;50.462;4.850;2023-11-25T06:06:29;3.04;95.92
76040;SHT30;64736;50.462;4.850;2023-11-25T06:08:54;3.08;95.88
76040;SHT30;64736;50.462;4.850;2023-11-25T06:11:24;3.15;95.80
76040;SHT30;64736;50.462;4.850;2023-11-25T06:13:59;3.18;95.72
76040;SHT30;64736;50.462;4.850;2023-11-25T06:16:25;3.22;95.60
76040;SHT30;64736;50.462;4.850;2023-11-25T06:18:51;3.24;95.55
76040;SHT30;64736;50.462;4.850;2023-11-25T06:21:17;3.27;95.50
76040;SHT30;64736;50.462;4.850;2023-11-25T06:23:45;3.34;95.45
76040;SHT30;64736;50.462;4.850;2023-11-25T06:26:11;3.38;95.32
76040;SHT30;64736;50.462;4.850;2023-11-25T06:28:45;3.43;95.27
76040;SHT30;64736;50.462;4.850;2023-11-25T06:31:12;3.48;95.24
76040;SHT30;64736;50.462;4.850;2023-11-25T06:33:39;3.49;95.18
76040;SHT30;64736;50.462;4.850;2023-11-25T06:36:05;3.51;95.23
76040;SHT30;64736;50.462;4.850;2023-11-25T06:38:31;3.56;95.12
76040;SHT30;64736;50.462;4.850;2023-11-25T06:40:57;3.59;95.06
76040;SHT30;64736;50.462;4.850;2023-11-25T06:43:23;3.65;95.21
76040;SHT30;64736;50.462;4.850;2023-11-25T06:45:50;3.72;95.90
76040;SHT30;64736;50.462;4.850;2023-11-25T06:48:22;3.65;96.36
76040;SHT30;64736;50.462;4.850;2023-11-25T06:50:52;3.69;96.62
76040;SHT30;64736;50.462;4.850;2023-11-25T06:53:18;3.58;95.85
76040;SHT30;64736;50.462;4.850;2023-11-25T06:55:43;3.75;96.68
76040;SHT30;64736;50.462;4.850;2023-11-25T06:58:13;3.72;96.95
76040;SHT30;64736;50.462;4.850;2023-11-25T07:00:40;3.69;96.26
76040;SHT30;64736;50.462;4.850;2023-11-25T07:03:06;3.76;96.85
76040;SHT30;64736;50.462;4.850;2023-11-25T07:05:33;3.77;96.95
76040;SHT30;64736;50.462;4.850;2023-11-25T07:07:58;3.77;96.96
76040;SHT30;64736;50.462;4.850;2023-11-25T07:10:24;3.79;97.12
76040;SHT30;64736;50.462;4.850;2023-11-25T07:12:51;3.79;97.19
76040;SHT30;64736;50.462;4.850;2023-11-25T07:15:17;3.85;97.24
76040;SHT30;64736;50.462;4.850;2023-11-25T07:17:43;3.86;97.26
76040;SHT30;64736;50.462;4.850;2023-11-25T07:20:09;3.77;97.30
76040;SHT30;64736;50.462;4.850;2023-11-25T07:22:39;3.77;97.28
76040;SHT30;64736;50.462;4.850;2023-11-25T07:25:07;3.80;97.33
76040;SHT30;64736;50.462;4.850;2023-11-25T07:27:42;3.82;97.32
76040;SHT30;64736;50.462;4.850;2023-11-25T07:30:09;3.86;97.36
76040;SHT30;64736;50.462;4.850;2023-11-25T07:32:35;3.91;97.38
76040;SHT30;64736;50.462;4.850;2023-11-25T07:35:06;3.89;97.39
76040;SHT30;64736;50.462;4.850;2023-11-25T07:37:36;3.87;97.41
76040;SHT30;64736;50.462;4.850;2023-11-25T07:40:03;3.83;97.42
76040;SHT30;64736;50.462;4.850;2023-11-25T07:42:49;3.70;97.42
76040;SHT30;64736;50.462;4.850;2023-11-25T07:45:15;3.63;97.49
76040;SHT30;64736;50.462;4.850;2023-11-25T07:47:42;3.65;97.52
76040;SHT30;64736;50.462;4.850;2023-11-25T07:50:12;3.67;97.53
76040;SHT30;64736;50.462;4.850;2023-11-25T07:52:38;3.75;97.58
76040;SHT30;64736;50.462;4.850;2023-11-25T07:55:05;3.83;97.57
76040;SHT30;64736;50.462;4.850;2023-11-25T07:57:33;3.91;97.58
76040;SHT30;64736;50.462;4.850;2023-11-25T07:59:59;3.97;97.50
76040;SHT30;64736;50.462;4.850;2023-11-25T08:02:24;4.01;97.60
76040;SHT30;64736;50.462;4.850;2023-11-25T08:04:50;4.01;97.53
76040;SHT30;64736;50.462;4.850;2023-11-25T08:07:17;4.04;97.58
76040;SHT30;64736;50.462;4.850;2023-11-25T08:09:43;4.01;97.48
76040;SHT30;64736;50.462;4.850;2023-11-25T08:12:09;4.04;97.44
76040;SHT30;64736;50.462;4.850;2023-11-25T08:14:35;4.07;97.40
76040;SHT30;64736;50.462;4.850;2023-11-25T08:17:04;4.10;97.47
76040;SHT30;64736;50.462;4.850;2023-11-25T08:19:30;4.11;97.35
76040;SHT30;64736;50.462;4.850;2023-11-25T08:21:56;3.87;96.99
76040;SHT30;64736;50.462;4.850;2023-11-25T08:24:21;3.94;97.23
76040;SHT30;64736;50.462;4.850;2023-11-25T08:26:49;4.00;97.05
76040;SHT30;64736;50.462;4.850;2023-11-25T08:29:14;4.11;97.60
76040;SHT30;64736;50.462;4.850;2023-11-25T08:31:41;3.90;96.76
76040;SHT30;64736;50.462;4.850;2023-11-25T08:34:07;4.03;97.25
76040;SHT30;64736;50.462;4.850;2023-11-25T08:36:38;4.00;97.08
76040;SHT30;64736;50.462;4.850;2023-11-25T08:39:13;3.89;97.14
76040;SHT30;64736;50.462;4.850;2023-11-25T08:41:40;4.15;97.46
76040;SHT30;64736;50.462;4.850;2023-11-25T08:44:12;4.27;97.46
76040;SHT30;64736;50.462;4.850;2023-11-25T08:46:42;4.31;97.30
76040;SHT30;64736;50.462;4.850;2023-11-25T08:49:10;4.37;97.43
76040;SHT30;64736;50.462;4.850;2023-11-25T08:51:39;4.38;97.45
76040;SHT30;64736;50.462;4.850;2023-11-25T08:54:05;4.37;97.52
76040;SHT30;64736;50.462;4.850;2023-11-25T08:56:31;4.44;97.40
76040;SHT30;64736;50.462;4.850;2023-11-25T08:58:58;4.34;97.00
76040;SHT30;64736;50.462;4.850;2023-11-25T09:01:39;4.40;97.33
76040;SHT30;64736;50.462;4.850;2023-11-25T09:04:05;4.44;97.43
76040;SHT30;64736;50.462;4.850;2023-11-25T09:06:32;4.48;97.38
76040;SHT30;64736;50.462;4.850;2023-11-25T09:08:58;4.48;97.44
76040;SHT30;64736;50.462;4.850;2023-11-25T09:11:24;4.22;96.61
76040;SHT30;64736;50.462;4.850;2023-11-25T09:13:52;4.42;97.22
76040;SHT30;64736;50.462;4.850;2023-11-25T09:16:20;4.61;97.18
76040;SHT30;64736;50.462;4.850;2023-11-25T09:18:46;4.68;97.36
76040;SHT30;64736;50.462;4.850;2023-11-25T09:21:12;4.68;97.16
76040;SHT30;64736;50.462;4.850;2023-11-25T09:23:39;4.79;97.07
76040;SHT30;64736;50.462;4.850;2023-11-25T09:26:04;4.79;96.91
76040;SHT30;64736;50.462;4.850;2023-11-25T09:28:30;4.75;96.85
76040;SHT30;64736;50.462;4.850;2023-11-25T09:30:55;4.79;96.96
76040;SHT30;64736;50.462;4.850;2023-11-25T09:33:22;4.80;97.14
76040;SHT30;64736;50.462;4.850;2023-11-25T09:35:50;4.72;97.14
76040;SHT30;64736;50.462;4.850;2023-11-25T09:38:16;4.84;97.10
76040;SHT30;64736;50.462;4.850;2023-11-25T09:40:42;4.90;97.01
76040;SHT30;64736;50.462;4.850;2023-11-25T09:43:08;4.84;96.49
76040;SHT30;64736;50.462;4.850;2023-11-25T09:45:34;5.16;96.76
76040;SHT30;64736;50.462;4.850;2023-11-25T09:48:01;5.11;96.35
76040;SHT30;64736;50.462;4.850;2023-11-25T09:50:27;5.19;96.37
76040;SHT30;64736;50.462;4.850;2023-11-25T09:52:53;5.34;96.49
76040;SHT30;64736;50.462;4.850;2023-11-25T09:55:22;5.65;96.14
76040;SHT30;64736;50.462;4.850;2023-11-25T09:58:02;5.42;95.98
76040;SHT30;64736;50.462;4.850;2023-11-25T10:00:31;5.31;96.39
76040;SHT30;64736;50.462;4.850;2023-11-25T10:02:59;5.16;96.05
76040;SHT30;64736;50.462;4.850;2023-11-25T10:05:26;5.13;96.57
76040;SHT30;64736;50.462;4.850;2023-11-25T10:07:52;5.01;96.55
76040;SHT30;64736;50.462;4.850;2023-11-25T10:10:18;4.86;96.60
76040;SHT30;64736;50.462;4.850;2023-11-25T10:12:52;4.89;96.09
76040;SHT30;64736;50.462;4.850;2023-11-25T10:15:19;5.07;96.73
76040;SHT30;64736;50.462;4.850;2023-11-25T10:17:44;5.31;96.65
76040;SHT30;64736;50.462;4.850;2023-11-25T10:20:10;5.48;96.31
76040;SHT30;64736;50.462;4.850;2023-11-25T10:22:48;5.30;95.97
76040;SHT30;64736;50.462;4.850;2023-11-25T10:25:17;5.27;96.18
76040;SHT30;64736;50.462;4.850;2023-11-25T10:27:43;5.26;96.25
76040;SHT30;64736;50.462;4.850;2023-11-25T10:30:13;5.04;95.82
76040;SHT30;64736;50.462;4.850;2023-11-25T10:32:40;5.30;96.63
76040;SHT30;64736;50.462;4.850;2023-11-25T10:35:09;5.26;96.51
76040;SHT30;64736;50.462;4.850;2023-11-25T10:37:37;5.27;96.62
76040;SHT30;64736;50.462;4.850;2023-11-25T10:40:09;5.34;96.84
76040;SHT30;64736;50.462;4.850;2023-11-25T10:42:41;4.94;95.34
76040;SHT30;64736;50.462;4.850;2023-11-25T10:45:18;4.97;95.95
76040;SHT30;64736;50.462;4.850;2023-11-25T10:47:44;5.10;96.74
76040;SHT30;64736;50.462;4.850;2023-11-25T10:50:11;5.01;96.33
76040;SHT30;64736;50.462;4.850;2023-11-25T10:52:39;5.06;96.49
76040;SHT30;64736;50.462;4.850;2023-11-25T10:55:09;5.09;96.27
76040;SHT30;64736;50.462;4.850;2023-11-25T10:57:35;5.03;96.14
76040;SHT30;64736;50.462;4.850;2023-11-25T11:00:01;5.07;95.60
76040;SHT30;64736;50.462;4.850;2023-11-25T11:02:49;5.13;95.51
76040;SHT30;64736;50.462;4.850;2023-11-25T11:05:29;5.27;95.52
76040;SHT30;64736;50.462;4.850;2023-11-25T11:08:06;5.14;95.40
76040;SHT30;64736;50.462;4.850;2023-11-25T11:10:47;5.32;95.45
76040;SHT30;64736;50.462;4.850;2023-11-25T11:13:18;5.59;96.14
76040;SHT30;64736;50.462;4.850;2023-11-25T11:15:49;5.61;95.94
76040;SHT30;64736;50.462;4.850;2023-11-25T11:18:36;5.50;94.71
76040;SHT30;64736;50.462;4.850;2023-11-25T11:21:06;5.62;95.40
76040;SHT30;64736;50.462;4.850;2023-11-25T11:23:32;5.73;94.83
76040;SHT30;64736;50.462;4.850;2023-11-25T11:26:24;5.66;93.41
76040;SHT30;64736;50.462;4.850;2023-11-25T11:29:18;6.51;94.80
76040;SHT30;64736;50.462;4.850;2023-11-25T11:31:59;7.44;94.18
76040;SHT30;64736;50.462;4.850;2023-11-25T11:34:36;8.16;90.82
76040;SHT30;64736;50.462;4.850;2023-11-25T11:37:04;8.02;91.50
76040;SHT30;64736;50.462;4.850;2023-11-25T11:39:39;7.58;91.18
76040;SHT30;64736;50.462;4.850;2023-11-25T11:45:14;6.75;93.52
76040;SHT30;64736;50.462;4.850;2023-11-25T11:47:53;6.41;92.09
76040;SHT30;64736;50.462;4.850;2023-11-25T11:58:12;7.19;90.82
76040;SHT30;64736;50.462;4.850;2023-11-25T12:00:53;6.76;91.84
76040;SHT30;64736;50.462;4.850;2023-11-25T12:03:19;6.78;93.47
76040;SHT30;64736;50.462;4.850;2023-11-25T12:05:45;6.52;91.07
76040;SHT30;64736;50.462;4.850;2023-11-25T12:08:11;6.93;88.78
76040;SHT30;64736;50.462;4.850;2023-11-25T12:10:37;6.64;90.72
76040;SHT30;64736;50.462;4.850;2023-11-25T12:13:04;6.92;91.07
76040;SHT30;64736;50.462;4.850;2023-11-25T12:15:30;6.67;92.36
76040;SHT30;64736;50.462;4.850;2023-11-25T12:17:57;6.68;91.58
76040;SHT30;64736;50.462;4.850;2023-11-25T12:20:23;6.78;92.01
76040;SHT30;64736;50.462;4.850;2023-11-25T12:22:51;6.28;90.13
76040;SHT30;64736;50.462;4.850;2023-11-25T12:25:17;7.13;90.00
76040;SHT30;64736;50.462;4.850;2023-11-25T12:28:07;7.54;89.05
76040;SHT30;64736;50.462;4.850;2023-11-25T12:30:38;6.68;88.79
76040;SHT30;64736;50.462;4.850;2023-11-25T12:33:04;6.44;89.32
76040;SHT30;64736;50.462;4.850;2023-11-25T12:35:35;6.45;88.70
76040;SHT30;64736;50.462;4.850;2023-11-25T12:38:02;6.69;89.57
76040;SHT30;64736;50.462;4.850;2023-11-25T12:40:32;6.55;89.86
76040;SHT30;64736;50.462;4.850;2023-11-25T12:42:58;6.64;90.54
76040;SHT30;64736;50.462;4.850;2023-11-25T12:47:56;6.24;90.03
76040;SHT30;64736;50.462;4.850;2023-11-25T12:50:23;6.38;91.51
76040;SHT30;64736;50.462;4.850;2023-11-25T12:53:21;6.31;90.51
76040;SHT30;64736;50.462;4.850;2023-11-25T12:55:47;6.40;91.62
76040;SHT30;64736;50.462;4.850;2023-11-25T12:58:17;7.34;89.68
76040;SHT30;64736;50.462;4.850;2023-11-25T13:00:48;8.64;86.69
76040;SHT30;64736;50.462;4.850;2023-11-25T13:03:27;8.67;83.60
76040;SHT30;64736;50.462;4.850;2023-11-25T13:06:02;8.91;83.47
76040;SHT30;64736;50.462;4.850;2023-11-25T13:08:31;9.73;81.26
76040;SHT30;64736;50.462;4.850;2023-11-25T13:11:06;8.92;83.42
76040;SHT30;64736;50.462;4.850;2023-11-25T13:13:35;7.96;84.51
76040;SHT30;64736;50.462;4.850;2023-11-25T13:16:02;6.99;87.01
76040;SHT30;64736;50.462;4.850;2023-11-25T13:18:30;6.92;88.40
76040;SHT30;64736;50.462;4.850;2023-11-25T13:20:57;7.19;88.47
76040;SHT30;64736;50.462;4.850;2023-11-25T13:23:27;7.81;86.59
76040;SHT30;64736;50.462;4.850;2023-11-25T13:25:52;8.19;84.78
76040;SHT30;64736;50.462;4.850;2023-11-25T13:28:18;7.63;85.71
76040;SHT30;64736;50.462;4.850;2023-11-25T13:30:44;7.16;87.71
76040;SHT30;64736;50.462;4.850;2023-11-25T13:33:11;7.02;88.42
76040;SHT30;64736;50.462;4.850;2023-11-25T13:35:43;6.64;89.63
76040;SHT30;64736;50.462;4.850;2023-11-25T13:38:10;6.92;89.56
76040;SHT30;64736;50.462;4.850;2023-11-25T13:40:41;6.93;91.12
76040;SHT30;64736;50.462;4.850;2023-11-25T13:43:09;6.41;89.91
76040;SHT30;64736;50.462;4.850;2023-11-25T13:45:39;6.37;90.17
76040;SHT30;64736;50.462;4.850;2023-11-25T13:48:06;6.34;90.25
76040;SHT30;64736;50.462;4.850;2023-11-25T13:50:33;6.33;90.45
76040;SHT30;64736;50.462;4.850;2023-11-25T13:53:00;6.09;90.83
76040;SHT30;64736;50.462;4.850;2023-11-25T13:55:27;6.41;91.01
76040;SHT30;64736;50.462;4.850;2023-11-25T13:57:55;6.19;90.23
76040;SHT30;64736;50.462;4.850;2023-11-25T14:00:21;6.51;91.06
76040;SHT30;64736;50.462;4.850;2023-11-25T14:02:51;6.28;90.20
76040;SHT30;64736;50.462;4.850;2023-11-25T14:05:17;6.58;91.59
76040;SHT30;64736;50.462;4.850;2023-11-25T14:07:44;6.63;93.30
76040;SHT30;64736;50.462;4.850;2023-11-25T14:10:11;6.48;93.77
76040;SHT30;64736;50.462;4.850;2023-11-25T14:12:38;6.11;92.86
76040;SHT30;64736;50.462;4.850;2023-11-25T14:15:05;6.38;94.09
76040;SHT30;64736;50.462;4.850;2023-11-25T14:17:36;6.31;93.72
76040;SHT30;64736;50.462;4.850;2023-11-25T14:20:09;6.09;93.09
76040;SHT30;64736;50.462;4.850;2023-11-25T14:22:45;6.13;93.32
76040;SHT30;64736;50.462;4.850;2023-11-25T14:25:12;6.11;94.25
76040;SHT30;64736;50.462;4.850;2023-11-25T14:27:43;6.17;95.35
76040;SHT30;64736;50.462;4.850;2023-11-25T14:30:11;6.21;95.56
76040;SHT30;64736;50.462;4.850;2023-11-25T14:32:38;6.30;96.20
76040;SHT30;64736;50.462;4.850;2023-11-25T14:35:05;5.83;95.18
76040;SHT30;64736;50.462;4.850;2023-11-25T14:37:34;5.78;95.24
76040;SHT30;64736;50.462;4.850;2023-11-25T14:40:08;6.10;96.16
76040;SHT30;64736;50.462;4.850;2023-11-25T14:42:38;5.80;95.17
76040;SHT30;64736;50.462;4.850;2023-11-25T14:45:07;5.82;95.15
76040;SHT30;64736;50.462;4.850;2023-11-25T14:47:34;5.71;94.31
76040;SHT30;64736;50.462;4.850;2023-11-25T14:50:00;6.00;95.05
76040;SHT30;64736;50.462;4.850;2023-11-25T14:52:26;5.82;94.70
76040;SHT30;64736;50.462;4.850;2023-11-25T14:54:52;5.66;93.82
76040;SHT30;64736;50.462;4.850;2023-11-25T14:57:17;5.72;94.55
76040;SHT30;64736;50.462;4.850;2023-11-25T14:59:43;5.72;95.24
76040;SHT30;64736;50.462;4.850;2023-11-25T15:02:10;5.82;96.03
76040;SHT30;64736;50.462;4.850;2023-11-25T15:04:36;5.78;95.99
76040;SHT30;64736;50.462;4.850;2023-11-25T15:07:03;5.58;95.82
76040;SHT30;64736;50.462;4.850;2023-11-25T15:09:29;5.65;95.12
76040;SHT30;64736;50.462;4.850;2023-11-25T15:11:55;5.40;94.16
76040;SHT30;64736;50.462;4.850;2023-11-25T15:14:22;5.68;95.48
76040;SHT30;64736;50.462;4.850;2023-11-25T15:16:48;5.66;95.51
76040;SHT30;64736;50.462;4.850;2023-11-25T15:19:14;5.65;95.20
76040;SHT30;64736;50.462;4.850;2023-11-25T15:21:40;5.54;94.97
76040;SHT30;64736;50.462;4.850;2023-11-25T15:24:06;5.58;94.93
76040;SHT30;64736;50.462;4.850;2023-11-25T15:26:31;5.63;95.25
76040;SHT30;64736;50.462;4.850;2023-11-25T15:28:58;5.63;95.38
76040;SHT30;64736;50.462;4.850;2023-11-25T15:31:24;5.61;94.72
76040;SHT30;64736;50.462;4.850;2023-11-25T15:33:50;5.76;95.06
76040;SHT30;64736;50.462;4.850;2023-11-25T15:36:16;5.68;94.60
76040;SHT30;64736;50.462;4.850;2023-11-25T15:38:42;5.73;94.49
76040;SHT30;64736;50.462;4.850;2023-11-25T15:41:09;5.85;94.77
76040;SHT30;64736;50.462;4.850;2023-11-25T15:43:38;5.83;94.83
76040;SHT30;64736;50.462;4.850;2023-11-25T15:46:04;5.62;94.16
76040;SHT30;64736;50.462;4.850;2023-11-25T15:48:33;5.68;94.14
76040;SHT30;64736;50.462;4.850;2023-11-25T15:50:59;5.82;94.39
76040;SHT30;64736;50.462;4.850;2023-11-25T15:53:25;5.73;94.11
76040;SHT30;64736;50.462;4.850;2023-11-25T15:55:50;5.92;94.56
76040;SHT30;64736;50.462;4.850;2023-11-25T15:58:16;5.86;94.96
76040;SHT30;64736;50.462;4.850;2023-11-25T16:00:44;5.85;95.66
76040;SHT30;64736;50.462;4.850;2023-11-25T16:03:10;5.68;95.28